Time;durP1;ratioP1;P1;durP2;ratioP2;P2;SDS_P1;SDS_P2;PMS_P1;PMS_P2;Temp;Humidity;BMP_temperature;BMP_pressure;BME280_temperature;BME280_humidity;BME280_pressure;Samples;Min_cycle;Max_cycle;Signal;HPM_P1;HPM_P2
2022/01/08 00:01:39;;;;;;;13.40;6.60;;;;;;;;;;5092873;28;20031;-62
2022/01/08 00:04:05;;;;;;;14.90;6.55;;;;;;;;;;5077075;28;20070;-75
2022/01/08 00:06:31;;;;;;;13.63;7.05;;;;;;;;;;5092871;28;20051;-67
2022/01/08 00:08:57;;;;;;;12.00;6.70;;;;;;;;;;5092599;28;20561;-72
2022/01/08 00:11:26;;;;;;;11.57;6.65;;;;;;;;;;5092918;28;20062;-64
2022/01/08 00:13:53;;;;;;;14.65;7.70;;;;;;;;;;5092096;28;20070;-73
2022/01/08 00:16:19;;;;;;;13.23;7.10;;;;;;;;;;5092629;28;20023;-75
2022/01/08 00:18:45;;;;;;;12.70;7.20;;;;;;;;;;5092711;28;20038;-65
2022/01/08 00:21:11;;;;;;;14.35;7.25;;;;;;;;;;5085200;28;20107;-73
2022/01/08 00:23:37;;;;;;;13.20;6.75;;;;;;;;;;5092333;28;20093;-67
2022/01/08 00:26:04;;;;;;;14.75;6.45;;;;;;;;;;5092528;28;20036;-72
2022/01/08 00:28:30;;;;;;;12.32;6.35;;;;;;;;;;5092606;28;20081;-69
2022/01/08 00:30:56;;;;;;;12.13;6.97;;;;;;;;;;5092217;28;20020;-68
2022/01/08 00:33:22;;;;;;;12.50;6.68;;;;;;;;;;5092346;28;20047;-64
2022/01/08 00:35:48;;;;;;;10.85;6.35;;;;;;;;;;5091012;28;20077;-67
2022/01/08 00:38:15;;;;;;;11.25;6.28;;;;;;;;;;5076496;28;20540;-69
2022/01/08 00:40:41;;;;;;;11.15;6.22;;;;;;;;;;5092315;28;20031;-72
2022/01/08 00:43:07;;;;;;;11.73;6.47;;;;;;;;;;5090552;28;20020;-74
2022/01/08 00:45:34;;;;;;;14.40;7.50;;;;;;;;;;5092225;28;20487;-75
2022/01/08 00:48:00;;;;;;;10.00;6.13;;;;;;;;;;5090906;28;20115;-70
2022/01/08 00:50:26;;;;;;;13.43;7.10;;;;;;;;;;5092214;28;20020;-62
2022/01/08 00:52:52;;;;;;;13.70;7.22;;;;;;;;;;5090533;28;20024;-73
2022/01/08 00:55:18;;;;;;;12.75;7.07;;;;;;;;;;5084800;28;20506;-73
2022/01/08 00:57:44;;;;;;;12.80;6.65;;;;;;;;;;5091749;28;20107;-72
2022/01/08 01:00:12;;;;;;;11.88;6.45;;;;;;;;;;5091582;28;20015;-72
2022/01/08 01:02:39;;;;;;;13.00;6.28;;;;;;;;;;5091972;28;20461;-74
2022/01/08 01:05:05;;;;;;;15.38;6.55;;;;;;;;;;5091546;28;20036;-73
2022/01/08 01:07:32;;;;;;;13.40;6.45;;;;;;;;;;5091623;28;20095;-74
2022/01/08 01:09:58;;;;;;;11.20;6.53;;;;;;;;;;5090860;28;20407;-69
2022/01/08 01:12:24;;;;;;;13.40;6.95;;;;;;;;;;5076895;28;20020;-73
2022/01/08 01:14:50;;;;;;;14.38;6.55;;;;;;;;;;5091505;28;20028;-73
2022/01/08 01:17:16;;;;;;;11.60;6.85;;;;;;;;;;5091833;28;20031;-72
2022/01/08 01:19:43;;;;;;;11.95;6.80;;;;;;;;;;5090167;28;20585;-69
2022/01/08 01:22:09;;;;;;;12.15;6.32;;;;;;;;;;5091215;28;20064;-74
2022/01/08 01:24:37;;;;;;;11.13;6.03;;;;;;;;;;5091067;28;20040;-74
2022/01/08 01:30:15;;;;;;;11.85;6.30;;;;;;;;;;5085375;28;20180;-74
2022/01/08 01:48:31;;;;;;;11.05;6.22;;;;;;;;;;5091105;28;20051;-65
2022/01/08 01:50:57;;;;;;;10.68;6.40;;;;;;;;;;5090850;28;20024;-74
2022/01/08 01:53:23;;;;;;;14.63;6.70;;;;;;;;;;5090877;28;20027;-68
2022/01/08 01:55:50;;;;;;;11.02;5.93;;;;;;;;;;5090929;28;20440;-74
2022/01/08 01:58:16;;;;;;;11.85;6.40;;;;;;;;;;5090975;28;20031;-68
2022/01/08 02:00:44;;;;;;;15.00;7.70;;;;;;;;;;5090795;28;20031;-70
2022/01/08 02:03:10;;;;;;;13.20;6.50;;;;;;;;;;5083334;28;20095;-68
2022/01/08 02:05:36;;;;;;;11.00;5.72;;;;;;;;;;5090595;28;20062;-70
2022/01/08 02:08:02;;;;;;;9.85;5.57;;;;;;;;;;5089344;28;20387;-74
2022/01/08 02:10:28;;;;;;;12.23;6.38;;;;;;;;;;5086996;28;20032;-70
2022/01/08 02:12:54;;;;;;;13.63;6.75;;;;;;;;;;5088567;28;20038;-69
2022/01/08 02:15:20;;;;;;;11.55;6.43;;;;;;;;;;5090512;28;20159;-73
2022/01/08 02:17:47;;;;;;;11.25;6.22;;;;;;;;;;5090734;28;20024;-68
2022/01/08 02:20:13;;;;;;;11.57;6.20;;;;;;;;;;5090238;28;20397;-72
2022/01/08 02:22:40;;;;;;;11.15;5.95;;;;;;;;;;5090773;28;20027;-70
2022/01/08 02:25:06;;;;;;;12.48;6.50;;;;;;;;;;5090585;28;20048;-72
2022/01/08 02:27:32;;;;;;;10.70;5.63;;;;;;;;;;5090591;28;20039;-67
2022/01/08 02:29:58;;;;;;;9.88;5.93;;;;;;;;;;5090683;28;20035;-66
2022/01/08 02:32:30;;;;;;;11.23;6.30;;;;;;;;;;5089305;28;20149;-67
2022/01/08 02:34:57;;;;;;;11.43;6.15;;;;;;;;;;5089892;28;20035;-67
2022/01/08 02:37:25;;;;;;;13.57;6.53;;;;;;;;;;5081554;28;20074;-66
2022/01/08 02:39:51;;;;;;;12.07;6.57;;;;;;;;;;5090659;28;20024;-73
2022/01/08 02:42:19;;;;;;;11.05;6.40;;;;;;;;;;5088013;28;20024;-66
2022/01/08 02:44:46;;;;;;;10.75;6.22;;;;;;;;;;5090757;28;20074;-68
2022/01/08 02:47:16;;;;;;;11.93;6.50;;;;;;;;;;5090504;28;20069;-74
2022/01/08 02:49:42;;;;;;;11.85;5.97;;;;;;;;;;5089600;28;20480;-63
2022/01/08 02:52:09;;;;;;;16.15;6.30;;;;;;;;;;5090150;28;20644;-71
2022/01/08 02:54:35;;;;;;;13.60;6.80;;;;;;;;;;5090502;28;20481;-72
2022/01/08 02:57:01;;;;;;;13.07;7.05;;;;;;;;;;5090499;28;20070;-72
2022/01/08 02:59:27;;;;;;;11.95;6.30;;;;;;;;;;5090329;28;20024;-67
2022/01/08 03:01:54;;;;;;;10.55;6.40;;;;;;;;;;5090193;28;20036;-72
2022/01/08 03:04:21;;;;;;;11.40;6.10;;;;;;;;;;5073501;28;20028;-68
2022/01/08 03:06:47;;;;;;;14.40;7.07;;;;;;;;;;5090364;28;20055;-69
2022/01/08 03:09:13;;;;;;;12.98;6.45;;;;;;;;;;5087280;28;20031;-67
2022/01/08 03:11:41;;;;;;;13.73;6.80;;;;;;;;;;5083577;28;20020;-72
2022/01/08 03:14:07;;;;;;;16.27;7.38;;;;;;;;;;5088616;28;20109;-69
2022/01/08 03:16:34;;;;;;;14.52;7.40;;;;;;;;;;5091056;28;20503;-75
2022/01/08 03:19:08;;;;;;;10.93;5.88;;;;;;;;;;5092685;28;20052;-73
2022/01/08 03:21:36;;;;;;;12.30;6.18;;;;;;;;;;5093677;28;20066;-67
2022/01/08 03:24:03;;;;;;;16.42;7.47;;;;;;;;;;5093579;28;20040;-69
2022/01/08 03:26:30;;;;;;;9.63;5.38;;;;;;;;;;5093349;28;20103;-68
2022/01/08 03:28:57;;;;;;;9.85;5.63;;;;;;;;;;5093560;28;20024;-75
2022/01/08 03:31:23;;;;;;;10.68;5.90;;;;;;;;;;5093443;28;20373;-70
2022/01/08 03:33:50;;;;;;;12.98;6.47;;;;;;;;;;5093509;28;20081;-67
2022/01/08 03:36:16;;;;;;;17.33;6.25;;;;;;;;;;5093969;28;20031;-74
2022/01/08 03:38:43;;;;;;;14.18;5.97;;;;;;;;;;5093706;28;20027;-65
2022/01/08 03:41:09;;;;;;;10.90;6.15;;;;;;;;;;5094129;28;20020;-68
2022/01/08 03:43:35;;;;;;;11.40;5.63;;;;;;;;;;5093896;28;20028;-65
2022/01/08 03:46:03;;;;;;;12.52;5.28;;;;;;;;;;5084809;28;20358;-76
2022/01/08 03:48:47;;;;;;;11.45;5.78;;;;;;;;;;5073937;28;20108;-69
2022/01/08 03:51:14;;;;;;;12.32;6.32;;;;;;;;;;5073756;28;20052;-67
2022/01/08 03:53:41;;;;;;;10.93;5.45;;;;;;;;;;5073438;28;20078;-64
2022/01/08 03:56:07;;;;;;;13.98;5.78;;;;;;;;;;5073386;28;20056;-66
2022/01/08 03:58:33;;;;;;;11.38;5.65;;;;;;;;;;5073531;28;20104;-66
2022/01/08 04:00:59;;;;;;;9.75;5.22;;;;;;;;;;5072371;28;20057;-70
2022/01/08 04:03:25;;;;;;;14.20;6.22;;;;;;;;;;5073606;28;20051;-66
2022/01/08 04:05:51;;;;;;;13.10;5.57;;;;;;;;;;5073524;28;20023;-65
2022/01/08 04:08:18;;;;;;;11.00;5.75;;;;;;;;;;5073331;28;20024;-71
2022/01/08 04:10:45;;;;;;;9.73;5.47;;;;;;;;;;5073163;28;20524;-71
2022/01/08 04:13:18;;;;;;;9.85;5.53;;;;;;;;;;5073371;28;20052;-71
2022/01/08 04:15:46;;;;;;;10.18;5.15;;;;;;;;;;5073199;28;20028;-66
2022/01/08 04:18:13;;;;;;;12.13;5.18;;;;;;;;;;5073305;28;20021;-72
2022/01/08 04:23:25;;;;;;;10.18;5.32;;;;;;;;;;5073122;28;20121;-73
2022/01/08 04:25:51;;;;;;;9.63;4.65;;;;;;;;;;5073006;28;20094;-72
2022/01/08 04:28:17;;;;;;;10.10;5.22;;;;;;;;;;5072892;28;20117;-65
2022/01/08 04:30:43;;;;;;;9.18;5.03;;;;;;;;;;5073172;28;20021;-71
2022/01/08 04:33:10;;;;;;;9.05;5.10;;;;;;;;;;5073043;28;20033;-74
2022/01/08 04:35:36;;;;;;;10.80;5.57;;;;;;;;;;5072767;28;20059;-74
2022/01/08 04:38:02;;;;;;;9.45;5.20;;;;;;;;;;5072767;28;20028;-77
2022/01/08 04:40:28;;;;;;;8.65;4.63;;;;;;;;;;5072820;28;20086;-75
2022/01/08 04:42:54;;;;;;;9.13;4.88;;;;;;;;;;5072789;28;20024;-75
2022/01/08 04:45:22;;;;;;;10.15;5.03;;;;;;;;;;5072745;28;20025;-76
2022/01/08 04:47:48;;;;;;;11.23;5.07;;;;;;;;;;5072707;28;20423;-74
2022/01/08 04:50:14;;;;;;;12.85;4.88;;;;;;;;;;5072515;28;20096;-75
2022/01/08 04:52:40;;;;;;;7.88;4.28;;;;;;;;;;5072536;28;20366;-75
2022/01/08 04:55:07;;;;;;;8.85;4.93;;;;;;;;;;5072142;28;20044;-72
2022/01/08 04:57:33;;;;;;;12.80;5.70;;;;;;;;;;5072327;28;20415;-76
2022/01/08 04:59:59;;;;;;;11.77;5.72;;;;;;;;;;5070915;28;20028;-75
2022/01/08 05:02:25;;;;;;;8.82;5.32;;;;;;;;;;5072269;28;20099;-76
2022/01/08 05:04:51;;;;;;;10.65;4.72;;;;;;;;;;5072341;28;20025;-68
2022/01/08 05:07:17;;;;;;;11.23;5.35;;;;;;;;;;5072079;28;20108;-65
2022/01/08 05:09:43;;;;;;;10.23;5.15;;;;;;;;;;5072372;28;20024;-74
2022/01/08 05:12:09;;;;;;;9.18;4.55;;;;;;;;;;5072197;28;20031;-76
2022/01/08 05:14:35;;;;;;;11.68;5.13;;;;;;;;;;5072020;28;20024;-76
2022/01/08 05:17:02;;;;;;;10.27;4.80;;;;;;;;;;5072244;28;20051;-74
2022/01/08 05:19:48;;;;;;;12.18;5.03;;;;;;;;;;5071909;28;20048;-75
2022/01/08 05:22:25;;;;;;;9.18;4.40;;;;;;;;;;5071899;28;20048;-75
2022/01/08 05:24:51;;;;;;;10.02;4.80;;;;;;;;;;5071870;28;20065;-65
2022/01/08 05:27:18;;;;;;;9.15;4.85;;;;;;;;;;5070794;28;20039;-68
2022/01/08 05:29:44;;;;;;;12.48;4.78;;;;;;;;;;5071924;28;20385;-77
2022/01/08 05:32:16;;;;;;;8.90;4.93;;;;;;;;;;5071293;28;20029;-73
2022/01/08 05:34:42;;;;;;;9.73;5.10;;;;;;;;;;5070355;28;20394;-73
2022/01/08 05:37:09;;;;;;;10.40;4.95;;;;;;;;;;5071740;28;20020;-71
2022/01/08 05:39:35;;;;;;;8.73;3.60;;;;;;;;;;5071329;28;20074;-74
2022/01/08 05:42:01;;;;;;;11.07;4.65;;;;;;;;;;5071830;28;20081;-79
2022/01/08 05:44:27;;;;;;;9.70;4.60;;;;;;;;;;5071871;28;20025;-72
2022/01/08 05:46:53;;;;;;;9.27;4.80;;;;;;;;;;5071727;28;20484;-74
2022/01/08 05:49:19;;;;;;;9.77;4.45;;;;;;;;;;5071514;28;20397;-76
2022/01/08 05:51:45;;;;;;;9.25;4.50;;;;;;;;;;5071790;28;20044;-72
2022/01/08 05:54:11;;;;;;;9.98;5.15;;;;;;;;;;5070162;28;20024;-79
2022/01/08 05:56:37;;;;;;;7.72;4.00;;;;;;;;;;5071596;28;20636;-73
2022/01/08 05:59:03;;;;;;;7.70;4.50;;;;;;;;;;5071640;28;20509;-77
2022/01/08 06:01:29;;;;;;;8.60;3.97;;;;;;;;;;5071527;28;20025;-75
2022/01/08 06:03:55;;;;;;;11.10;5.43;;;;;;;;;;5071621;28;20096;-78
2022/01/08 06:06:21;;;;;;;9.68;4.78;;;;;;;;;;5071401;28;20025;-74
2022/01/08 06:08:47;;;;;;;8.13;3.92;;;;;;;;;;5070199;28;20021;-70
2022/01/08 06:11:14;;;;;;;10.35;4.57;;;;;;;;;;5071496;28;20024;-75
2022/01/08 06:13:40;;;;;;;8.00;4.13;;;;;;;;;;5071165;28;20021;-70
2022/01/08 06:16:06;;;;;;;8.40;3.97;;;;;;;;;;5070088;28;20029;-66
2022/01/08 06:18:32;;;;;;;8.43;3.83;;;;;;;;;;5071261;28;20052;-71
2022/01/08 06:20:59;;;;;;;9.98;4.82;;;;;;;;;;5071334;28;20033;-72
2022/01/08 06:23:26;;;;;;;7.90;4.00;;;;;;;;;;5071143;28;20102;-69
2022/01/08 06:25:52;;;;;;;8.82;4.22;;;;;;;;;;5069846;28;20478;-72
2022/01/08 06:28:18;;;;;;;8.95;4.22;;;;;;;;;;5070886;28;20595;-72
2022/01/08 06:30:44;;;;;;;9.43;4.60;;;;;;;;;;5071071;28;20591;-68
2022/01/08 06:33:10;;;;;;;10.35;5.10;;;;;;;;;;5071113;28;20028;-68
2022/01/08 06:35:36;;;;;;;10.02;4.53;;;;;;;;;;5071133;28;20033;-67
2022/01/08 06:38:02;;;;;;;9.40;5.00;;;;;;;;;;5071009;28;20206;-65
2022/01/08 06:40:28;;;;;;;7.72;4.28;;;;;;;;;;5071117;28;20016;-62
2022/01/08 06:42:54;;;;;;;8.48;4.25;;;;;;;;;;5070930;28;20378;-62
2022/01/08 06:45:20;;;;;;;17.88;4.45;;;;;;;;;;5071037;28;20025;-73
2022/01/08 06:47:46;;;;;;;9.43;4.50;;;;;;;;;;5070995;28;20020;-66
2022/01/08 06:50:13;;;;;;;9.27;4.95;;;;;;;;;;5071166;28;20017;-73
2022/01/08 06:52:39;;;;;;;8.32;4.18;;;;;;;;;;5072446;28;20031;-70
2022/01/08 06:55:06;;;;;;;9.50;4.85;;;;;;;;;;5074891;28;20485;-75
2022/01/08 06:57:32;;;;;;;10.48;5.22;;;;;;;;;;5074869;28;20024;-76
2022/01/08 07:00:00;;;;;;;10.15;4.60;;;;;;;;;;5074733;28;20112;-71
2022/01/08 07:02:26;;;;;;;7.88;4.93;;;;;;;;;;5074663;28;20048;-72
2022/01/08 07:04:52;;;;;;;9.88;5.07;;;;;;;;;;5074923;28;20127;-74
2022/01/08 07:07:18;;;;;;;9.20;4.97;;;;;;;;;;5074625;28;20024;-75
2022/01/08 07:09:45;;;;;;;8.77;4.68;;;;;;;;;;5073006;28;20025;-74
2022/01/08 07:12:11;;;;;;;7.88;4.22;;;;;;;;;;5074443;28;20067;-73
2022/01/08 07:14:37;;;;;;;10.43;4.40;;;;;;;;;;5074211;28;20028;-67
2022/01/08 07:17:03;;;;;;;9.35;4.70;;;;;;;;;;5074254;28;20024;-74
2022/01/08 07:19:29;;;;;;;10.05;5.00;;;;;;;;;;5074511;28;20048;-74
2022/01/08 07:21:55;;;;;;;9.48;4.97;;;;;;;;;;5074088;28;20056;-73
2022/01/08 07:24:21;;;;;;;9.45;4.47;;;;;;;;;;5073949;28;20044;-71
2022/01/08 07:26:47;;;;;;;9.05;5.22;;;;;;;;;;5074351;28;20023;-70
2022/01/08 07:29:13;;;;;;;10.13;4.90;;;;;;;;;;5074111;28;20397;-70
2022/01/08 07:31:39;;;;;;;10.25;4.72;;;;;;;;;;5072766;28;20032;-73
2022/01/08 07:34:05;;;;;;;8.50;4.28;;;;;;;;;;5073188;28;20044;-73
2022/01/08 07:36:31;;;;;;;9.75;4.30;;;;;;;;;;5073932;28;20056;-67
2022/01/08 07:38:57;;;;;;;8.65;4.13;;;;;;;;;;5072430;28;20085;-71
2022/01/08 07:41:24;;;;;;;9.73;4.88;;;;;;;;;;5074037;28;20469;-72
2022/01/08 07:43:50;;;;;;;8.80;4.38;;;;;;;;;;5073878;28;20104;-68
2022/01/08 07:46:16;;;;;;;8.48;4.38;;;;;;;;;;5072476;28;20056;-75
2022/01/08 07:48:43;;;;;;;6.43;3.72;;;;;;;;;;5073650;28;20488;-68
2022/01/08 07:51:09;;;;;;;9.20;4.60;;;;;;;;;;5072405;28;20017;-71
2022/01/08 07:53:35;;;;;;;7.97;3.80;;;;;;;;;;5073396;28;20393;-70
2022/01/08 07:56:01;;;;;;;8.32;4.18;;;;;;;;;;5073731;28;20102;-72
2022/01/08 07:58:27;;;;;;;9.13;4.30;;;;;;;;;;5072443;28;20028;-68
2022/01/08 08:00:53;;;;;;;8.40;4.40;;;;;;;;;;5073713;28;20028;-64
2022/01/08 08:03:20;;;;;;;9.18;4.60;;;;;;;;;;5073172;28;20107;-74
2022/01/08 08:05:46;;;;;;;7.95;4.40;;;;;;;;;;5071998;28;20024;-74
2022/01/08 08:08:16;;;;;;;9.10;4.70;;;;;;;;;;5073302;28;20024;-73
2022/01/08 08:10:42;;;;;;;8.40;4.45;;;;;;;;;;5073468;28;20100;-74
2022/01/08 08:13:08;;;;;;;7.43;4.03;;;;;;;;;;5073361;28;20033;-69
2022/01/08 08:15:34;;;;;;;9.50;4.60;;;;;;;;;;5073200;28;20512;-67
2022/01/08 08:18:00;;;;;;;8.23;3.90;;;;;;;;;;5073210;28;20029;-75
2022/01/08 08:20:26;;;;;;;9.35;4.40;;;;;;;;;;5073052;28;20024;-67
2022/01/08 08:22:52;;;;;;;9.23;4.60;;;;;;;;;;5072840;28;20017;-72
2022/01/08 08:25:19;;;;;;;7.40;4.03;;;;;;;;;;5073122;28;20066;-72
2022/01/08 08:27:45;;;;;;;8.07;4.47;;;;;;;;;;5072933;28;20031;-74
2022/01/08 08:30:12;;;;;;;9.02;4.43;;;;;;;;;;5072948;28;20021;-73
2022/01/08 08:32:38;;;;;;;10.77;4.07;;;;;;;;;;5072665;28;20024;-72
2022/01/08 08:35:04;;;;;;;8.07;3.63;;;;;;;;;;5072647;28;20037;-65
2022/01/08 08:37:30;;;;;;;13.32;4.32;;;;;;;;;;5071490;28;20094;-63
2022/01/08 08:39:57;;;;;;;12.30;4.05;;;;;;;;;;5072719;28;20387;-67
2022/01/08 08:42:23;;;;;;;9.10;4.45;;;;;;;;;;5072590;28;20024;-75
2022/01/08 08:44:49;;;;;;;10.05;4.43;;;;;;;;;;5072583;28;20028;-66
2022/01/08 08:47:15;;;;;;;7.47;3.88;;;;;;;;;;5072842;28;20039;-66
2022/01/08 08:49:41;;;;;;;7.30;4.07;;;;;;;;;;5071289;28;20369;-74
2022/01/08 08:52:07;;;;;;;7.88;4.53;;;;;;;;;;5072570;28;20027;-75
2022/01/08 08:54:33;;;;;;;7.63;3.65;;;;;;;;;;5072412;28;20058;-73
2022/01/08 08:57:00;;;;;;;9.20;4.22;;;;;;;;;;5072358;28;20539;-73
2022/01/08 08:59:26;;;;;;;7.57;3.80;;;;;;;;;;5072178;28;20028;-69
2022/01/08 09:01:52;;;;;;;11.52;4.18;;;;;;;;;;5072578;28;20012;-66
2022/01/08 09:04:18;;;;;;;10.65;4.15;;;;;;;;;;5072743;28;20099;-70
2022/01/08 09:06:44;;;;;;;8.95;4.13;;;;;;;;;;5072189;28;20094;-74
2022/01/08 09:09:10;;;;;;;7.40;3.67;;;;;;;;;;5071958;28;20063;-74
2022/01/08 09:11:36;;;;;;;7.88;3.45;;;;;;;;;;5072066;28;20048;-73
2022/01/08 09:14:02;;;;;;;7.93;3.42;;;;;;;;;;5071142;28;20029;-68
2022/01/08 09:16:29;;;;;;;7.25;3.53;;;;;;;;;;5072345;28;20381;-67
2022/01/08 09:18:55;;;;;;;9.23;3.80;;;;;;;;;;5071883;28;20016;-72
2022/01/08 09:21:21;;;;;;;14.27;4.78;;;;;;;;;;5071904;28;20024;-66
2022/01/08 09:23:47;;;;;;;9.38;4.38;;;;;;;;;;5071546;28;20432;-65
2022/01/08 09:26:13;;;;;;;17.83;4.68;;;;;;;;;;5071932;28;20029;-74
2022/01/08 09:28:40;;;;;;;10.38;4.72;;;;;;;;;;5071894;28;20016;-76
2022/01/08 09:31:06;;;;;;;13.05;4.88;;;;;;;;;;5070588;28;20024;-64
2022/01/08 09:33:33;;;;;;;17.92;4.80;;;;;;;;;;5082392;28;20068;-70
2022/01/08 09:35:59;;;;;;;10.32;4.13;;;;;;;;;;5091325;28;20119;-69
2022/01/08 09:38:25;;;;;;;11.45;4.10;;;;;;;;;;5091221;28;20024;-70
2022/01/08 09:40:52;;;;;;;11.50;4.82;;;;;;;;;;5091386;28;20496;-68
2022/01/08 09:43:18;;;;;;;13.68;4.85;;;;;;;;;;5091344;28;20024;-71
2022/01/08 09:45:44;;;;;;;16.45;5.43;;;;;;;;;;5091302;28;20023;-72
2022/01/08 09:48:10;;;;;;;15.07;4.85;;;;;;;;;;5089982;28;20027;-71
2022/01/08 09:50:37;;;;;;;10.45;4.53;;;;;;;;;;5091326;28;20449;-71
2022/01/08 09:53:03;;;;;;;22.05;4.93;;;;;;;;;;5091236;28;20514;-67
2022/01/08 09:55:30;;;;;;;11.35;4.50;;;;;;;;;;5088855;28;20070;-66
2022/01/08 09:57:56;;;;;;;12.73;5.30;;;;;;;;;;5091164;28;20487;-71
2022/01/08 10:00:24;;;;;;;9.50;4.45;;;;;;;;;;5089603;28;20392;-70
2022/01/08 10:02:51;;;;;;;11.15;4.55;;;;;;;;;;5090966;28;20016;-72
2022/01/08 10:05:17;;;;;;;10.27;4.97;;;;;;;;;;5090702;28;20028;-75
2022/01/08 10:07:56;;;;;;;11.23;5.10;;;;;;;;;;5091077;28;20024;-70
2022/01/08 10:10:22;;;;;;;10.82;4.72;;;;;;;;;;5089758;28;20104;-76
2022/01/08 10:12:58;;;;;;;6.03;3.42;;;;;;;;;;5091234;28;20388;-74
2022/01/08 10:18:39;;;;;;;9.40;4.50;;;;;;;;;;5091450;28;20034;-77
2022/01/08 10:21:15;;;;;;;11.68;5.13;;;;;;;;;;5074539;28;20020;-62
2022/01/08 10:23:43;;;;;;;11.80;4.93;;;;;;;;;;5088968;28;20067;-71
2022/01/08 10:26:13;;;;;;;8.95;4.28;;;;;;;;;;5090338;28;20081;-75
2022/01/08 10:28:43;;;;;;;7.18;3.67;;;;;;;;;;5093513;28;20016;-69
2022/01/08 10:31:12;;;;;;;7.88;4.20;;;;;;;;;;5094811;28;20020;-68
2022/01/08 10:33:39;;;;;;;12.27;4.45;;;;;;;;;;5094661;28;20050;-76
2022/01/08 10:36:06;;;;;;;8.70;4.22;;;;;;;;;;5093759;28;20403;-77
2022/01/08 10:38:32;;;;;;;8.50;4.35;;;;;;;;;;5094823;28;20103;-69
2022/01/08 10:40:59;;;;;;;9.35;4.13;;;;;;;;;;5094472;28;20030;-73
2022/01/08 10:43:29;;;;;;;8.93;4.25;;;;;;;;;;5094771;28;20054;-75
2022/01/08 10:46:07;;;;;;;9.55;4.60;;;;;;;;;;5094331;28;20603;-73
2022/01/08 10:48:33;;;;;;;8.93;4.15;;;;;;;;;;5093239;28;20032;-64
2022/01/08 10:51:10;;;;;;;9.32;3.97;;;;;;;;;;5094965;28;20020;-67
2022/01/08 10:53:55;;;;;;;24.55;4.90;;;;;;;;;;5095101;28;20020;-70
2022/01/08 10:56:22;;;;;;;14.00;4.30;;;;;;;;;;5092059;28;20040;-76
2022/01/08 10:58:52;;;;;;;11.50;4.15;;;;;;;;;;5094879;28;20020;-74
2022/01/08 11:01:37;;;;;;;12.15;3.70;;;;;;;;;;5093569;28;20052;-66
2022/01/08 11:04:03;;;;;;;9.50;4.13;;;;;;;;;;5094287;28;20012;-73
2022/01/08 11:06:30;;;;;;;10.13;4.78;;;;;;;;;;5094756;28;20023;-68
2022/01/08 11:09:00;;;;;;;9.27;4.28;;;;;;;;;;5094347;28;20053;-74
2022/01/08 11:11:29;;;;;;;10.13;4.32;;;;;;;;;;5093108;28;20024;-75
2022/01/08 11:14:03;;;;;;;9.77;4.20;;;;;;;;;;5093570;28;20464;-72
2022/01/08 11:16:29;;;;;;;16.90;4.38;;;;;;;;;;5094605;28;20077;-74
2022/01/08 11:18:55;;;;;;;11.85;4.80;;;;;;;;;;5094405;28;20020;-70
2022/01/08 11:21:22;;;;;;;9.70;4.07;;;;;;;;;;5094409;28;20476;-70
2022/01/08 11:23:48;;;;;;;9.98;4.30;;;;;;;;;;5094117;28;20503;-76
2022/01/08 11:26:14;;;;;;;10.05;4.25;;;;;;;;;;5094243;28;20066;-74
2022/01/08 11:28:43;;;;;;;10.60;4.78;;;;;;;;;;5094173;28;20031;-62
2022/01/08 11:31:12;;;;;;;11.57;4.07;;;;;;;;;;5094234;28;20027;-73
2022/01/08 11:33:43;;;;;;;10.25;4.50;;;;;;;;;;5092919;28;20111;-69
2022/01/08 11:36:10;;;;;;;10.52;4.78;;;;;;;;;;5094182;28;20047;-76
2022/01/08 11:38:36;;;;;;;14.38;4.63;;;;;;;;;;5093008;28;20017;-62
2022/01/08 11:41:02;;;;;;;10.98;4.53;;;;;;;;;;5094045;28;20361;-76
2022/01/08 11:43:29;;;;;;;31.45;6.22;;;;;;;;;;5093112;28;20028;-76
2022/01/08 11:45:56;;;;;;;41.78;6.25;;;;;;;;;;5088480;28;20024;-71
2022/01/08 11:48:31;;;;;;;46.10;7.95;;;;;;;;;;5083740;28;20020;-74
2022/01/08 11:50:58;;;;;;;44.08;7.25;;;;;;;;;;5086732;28;20119;-74
2022/01/08 11:53:26;;;;;;;38.50;7.35;;;;;;;;;;5090690;28;20396;-74
2022/01/08 11:55:56;;;;;;;35.95;6.68;;;;;;;;;;5091861;28;20101;-64
2022/01/08 11:58:27;;;;;;;33.08;7.22;;;;;;;;;;5092436;28;20020;-71
2022/01/08 12:00:56;;;;;;;28.80;6.22;;;;;;;;;;5093528;28;20072;-68
2022/01/08 12:03:31;;;;;;;34.13;6.80;;;;;;;;;;5093131;28;20043;-73
2022/01/08 12:05:57;;;;;;;26.83;6.95;;;;;;;;;;5087761;28;20069;-63
2022/01/08 12:08:46;;;;;;;29.27;7.13;;;;;;;;;;5086386;28;20103;-64
2022/01/08 12:11:12;;;;;;;24.02;6.35;;;;;;;;;;5092420;28;20009;-62
2022/01/08 12:13:45;;;;;;;26.92;6.20;;;;;;;;;;5091662;28;20472;-61
2022/01/08 12:16:34;;;;;;;28.20;6.78;;;;;;;;;;5090516;28;20514;-66
2022/01/08 12:19:00;;;;;;;27.52;5.57;;;;;;;;;;5092489;28;20537;-64
2022/01/08 12:21:40;;;;;;;20.00;6.03;;;;;;;;;;5092255;28;20477;-62
2022/01/08 12:24:25;;;;;;;19.75;5.30;;;;;;;;;;5091838;28;20071;-62
2022/01/08 12:26:51;;;;;;;17.58;6.00;;;;;;;;;;5092170;28;20050;-72
2022/01/08 12:29:36;;;;;;;17.30;5.35;;;;;;;;;;5092287;28;20075;-68
2022/01/08 12:32:17;;;;;;;16.80;5.40;;;;;;;;;;5083023;28;20069;-69
2022/01/08 12:34:47;;;;;;;17.42;5.35;;;;;;;;;;5091876;28;20480;-65
2022/01/08 12:37:13;;;;;;;18.50;6.22;;;;;;;;;;5091047;28;20431;-68
2022/01/08 12:39:43;;;;;;;15.65;6.07;;;;;;;;;;5092090;28;20031;-62
2022/01/08 12:42:21;;;;;;;12.73;5.47;;;;;;;;;;5089548;28;20051;-71
2022/01/08 12:44:59;;;;;;;13.23;5.38;;;;;;;;;;5091845;28;20376;-71
2022/01/08 12:47:39;;;;;;;16.38;6.18;;;;;;;;;;5088898;28;20099;-65
2022/01/08 12:50:18;;;;;;;17.73;5.57;;;;;;;;;;5095722;28;20024;-73
2022/01/08 12:53:03;;;;;;;21.63;6.10;;;;;;;;;;5093215;28;20024;-69
2022/01/08 12:55:29;;;;;;;16.13;5.90;;;;;;;;;;5092621;28;20034;-64
2022/01/08 12:57:55;;;;;;;12.30;4.35;;;;;;;;;;5092589;28;20020;-66
2022/01/08 13:00:21;;;;;;;13.85;5.13;;;;;;;;;;5092656;28;20028;-78
2022/01/08 13:02:47;;;;;;;14.95;4.65;;;;;;;;;;5092309;28;20095;-70
2022/01/08 13:05:14;;;;;;;13.57;4.75;;;;;;;;;;5092362;28;20016;-79
2022/01/08 13:07:53;;;;;;;11.80;4.47;;;;;;;;;;5091069;28;20034;-76
2022/01/08 13:10:19;;;;;;;11.43;4.70;;;;;;;;;;5092373;28;20024;-77
2022/01/08 13:13:02;;;;;;;10.00;4.88;;;;;;;;;;5092302;28;20016;-71
2022/01/08 13:15:34;;;;;;;13.00;4.50;;;;;;;;;;5090849;28;20040;-66
2022/01/08 13:18:16;;;;;;;12.40;4.55;;;;;;;;;;5091145;28;20024;-63
2022/01/08 13:20:42;;;;;;;10.98;4.57;;;;;;;;;;5092320;28;20028;-72
2022/01/08 13:23:12;;;;;;;14.10;4.43;;;;;;;;;;5090224;28;20040;-64
2022/01/08 13:25:38;;;;;;;16.15;5.35;;;;;;;;;;5089552;28;20035;-77
2022/01/08 13:28:04;;;;;;;20.92;5.07;;;;;;;;;;5091265;28;20145;-77
2022/01/08 13:30:31;;;;;;;10.32;4.50;;;;;;;;;;5088939;28;20012;-72
2022/01/08 13:33:00;;;;;;;13.88;4.32;;;;;;;;;;5087756;28;20020;-63
2022/01/08 13:35:27;;;;;;;21.83;5.20;;;;;;;;;;5087468;28;20082;-78
2022/01/08 13:37:53;;;;;;;12.48;4.72;;;;;;;;;;5088147;28;20016;-74
2022/01/08 13:40:19;;;;;;;16.08;4.68;;;;;;;;;;5090481;28;20024;-75
2022/01/08 13:42:45;;;;;;;13.73;5.03;;;;;;;;;;5091637;28;20069;-69
2022/01/08 13:45:12;;;;;;;13.00;5.32;;;;;;;;;;5091928;28;20024;-75
2022/01/08 13:47:45;;;;;;;13.40;4.85;;;;;;;;;;5091498;28;20016;-75
2022/01/08 13:50:22;;;;;;;16.25;4.60;;;;;;;;;;5091473;28;20028;-79
2022/01/08 13:53:00;;;;;;;12.73;4.68;;;;;;;;;;5090262;28;20019;-68
2022/01/08 13:55:44;;;;;;;10.18;3.60;;;;;;;;;;5091796;28;20217;-65
2022/01/08 13:58:29;;;;;;;13.52;4.63;;;;;;;;;;5091642;28;20153;-75
2022/01/08 14:01:10;;;;;;;10.23;4.07;;;;;;;;;;5090029;28;20024;-75
2022/01/08 14:03:46;;;;;;;17.80;4.57;;;;;;;;;;5091676;28;20038;-74
2022/01/08 14:06:26;;;;;;;22.02;5.30;;;;;;;;;;5091561;28;20024;-71
2022/01/08 14:08:56;;;;;;;17.90;4.85;;;;;;;;;;5090268;28;20020;-72
2022/01/08 14:11:23;;;;;;;12.35;4.05;;;;;;;;;;5091865;28;20532;-71
2022/01/08 14:13:53;;;;;;;15.60;4.70;;;;;;;;;;5091665;28;20024;-70
2022/01/08 14:16:26;;;;;;;12.25;4.05;;;;;;;;;;5091603;28;20024;-78
2022/01/08 14:18:52;;;;;;;9.70;4.18;;;;;;;;;;5091226;28;20471;-66
2022/01/08 14:21:21;;;;;;;12.25;3.92;;;;;;;;;;5091430;28;20461;-78
2022/01/08 14:23:48;;;;;;;10.70;4.28;;;;;;;;;;5091194;28;20519;-74
2022/01/08 14:26:33;;;;;;;11.45;4.28;;;;;;;;;;5091450;28;20020;-76
2022/01/08 14:29:04;;;;;;;10.20;4.13;;;;;;;;;;5091242;28;20065;-70
2022/01/08 14:31:31;;;;;;;20.52;5.00;;;;;;;;;;5091257;28;20035;-73
2022/01/08 14:34:03;;;;;;;10.20;4.07;;;;;;;;;;5091334;28;20027;-66
2022/01/08 14:36:56;;;;;;;11.18;3.80;;;;;;;;;;5090101;28;20417;-71
2022/01/08 14:39:31;;;;;;;9.38;3.25;;;;;;;;;;5091288;28;20020;-78
2022/01/08 14:41:57;;;;;;;13.40;3.70;;;;;;;;;;5091284;28;20042;-75
2022/01/08 14:44:24;;;;;;;9.23;3.72;;;;;;;;;;5091033;28;20032;-78
2022/01/08 14:46:50;;;;;;;10.18;3.47;;;;;;;;;;5089848;28;20516;-79
2022/01/08 14:49:17;;;;;;;10.80;3.40;;;;;;;;;;5085835;28;20023;-77
2022/01/08 14:51:43;;;;;;;7.82;3.42;;;;;;;;;;5090369;28;20023;-73
2022/01/08 14:54:09;;;;;;;13.98;3.60;;;;;;;;;;5086405;28;20032;-63
2022/01/08 14:56:36;;;;;;;15.10;4.10;;;;;;;;;;5088988;28;20051;-66
2022/01/08 14:59:02;;;;;;;8.68;3.97;;;;;;;;;;5088792;28;20358;-69
2022/01/08 15:01:28;;;;;;;10.45;3.72;;;;;;;;;;5090170;28;20509;-67
2022/01/08 15:03:55;;;;;;;12.55;3.53;;;;;;;;;;5089541;28;20016;-66